Time;durP1;ratioP1;P1;durP2;ratioP2;P2;SDS_P1;SDS_P2;PMS_P1;PMS_P2;Temp;Humidity;BMP_temperature;BMP_pressure;BME280_temperature;BME280_humidity;BME280_pressure;Samples;Min_cycle;Max_cycle;Signal;HPM_P1;HPM_P2
2023/11/22 00:00:28;;;;;;;2.30;1.30;;;19.20;60.50;;;;;;5019529;28;20041;-65
2023/11/22 00:02:53;;;;;;;1.92;1.25;;;19.20;60.40;;;;;;5019300;28;20026;-69
2023/11/22 00:05:19;;;;;;;1.95;1.30;;;19.20;60.30;;;;;;5003506;28;20033;-69
2023/11/22 00:07:44;;;;;;;2.58;1.40;;;19.20;60.30;;;;;;5018543;28;20037;-69
2023/11/22 00:10:10;;;;;;;1.52;1.13;;;19.20;60.40;;;;;;5020021;28;20505;-69
2023/11/22 00:12:37;;;;;;;1.98;1.35;;;19.20;60.30;;;;;;5020309;28;20026;-69
2023/11/22 00:15:10;;;;;;;2.20;1.10;;;19.20;60.80;;;;;;5001796;28;20167;-69
2023/11/22 00:17:37;;;;;;;2.60;1.20;;;19.20;60.20;;;;;;5018186;28;20033;-69
2023/11/22 00:20:05;;;;;;;2.20;1.20;;;19.20;60.20;;;;;;5019099;28;20032;-69
2023/11/22 00:22:32;;;;;;;1.95;1.30;;;19.20;60.20;;;;;;5016508;28;20026;-69
2023/11/22 00:24:58;;;;;;;2.40;1.33;;;19.20;60.10;;;;;;5019631;28;20106;-69
2023/11/22 00:27:24;;;;;;;2.08;1.25;;;19.20;60.10;;;;;;5019792;28;20018;-69
2023/11/22 00:29:50;;;;;;;1.90;1.30;;;19.20;60.10;;;;;;5019001;28;20024;-68
2023/11/22 00:32:15;;;;;;;2.40;1.40;;;19.20;60.10;;;;;;5016825;28;20109;-69
2023/11/22 00:34:41;;;;;;;2.15;1.23;;;19.20;60.10;;;;;;5020089;28;20037;-69
2023/11/22 00:37:07;;;;;;;1.55;1.00;;;19.20;60.10;;;;;;5017558;28;20442;-68
2023/11/22 00:39:32;;;;;;;2.65;1.13;;;19.20;60.00;;;;;;5020725;28;20076;-69
2023/11/22 00:41:58;;;;;;;2.03;1.33;;;19.20;60.00;;;;;;5018060;28;20335;-69
2023/11/22 00:44:24;;;;;;;1.60;1.10;;;19.20;60.00;;;;;;5017751;28;20030;-69
2023/11/22 00:46:50;;;;;;;2.15;1.20;;;19.20;60.00;;;;;;5016856;28;20140;-68
2023/11/22 00:49:15;;;;;;;1.55;1.17;;;19.20;60.00;;;;;;5019879;28;20026;-69
2023/11/22 00:51:41;;;;;;;1.73;1.10;;;19.20;60.00;;;;;;5015422;28;20057;-69
2023/11/22 00:54:07;;;;;;;1.63;1.13;;;19.20;60.00;;;;;;5015739;28;20456;-66
2023/11/22 00:56:33;;;;;;;1.90;1.10;;;19.20;60.00;;;;;;5020297;28;20113;-67
2023/11/22 00:58:59;;;;;;;1.70;1.10;;;19.20;59.90;;;;;;5001432;28;20059;-67
2023/11/22 01:01:26;;;;;;;2.35;1.10;;;19.20;59.90;;;;;;5017534;28;20114;-66
2023/11/22 01:03:51;;;;;;;2.10;1.38;;;19.20;59.90;;;;;;5019141;28;20075;-67
2023/11/22 01:06:20;;;;;;;1.75;1.15;;;19.20;59.90;;;;;;5017914;28;20429;-67
2023/11/22 01:08:47;;;;;;;1.83;1.17;;;19.20;59.90;;;;;;5017494;28;20513;-67
2023/11/22 01:11:13;;;;;;;1.80;1.10;;;19.20;59.90;;;;;;5018024;28;20072;-67
2023/11/22 01:13:42;;;;;;;1.75;1.10;;;19.20;59.90;;;;;;5019783;28;20033;-69
2023/11/22 01:16:11;;;;;;;;;;;19.20;59.90;;;;;;5017548;28;20451;-69
2023/11/22 01:18:37;;;;;;;2.00;1.20;;;19.20;59.90;;;;;;5020105;28;20269;-69
2023/11/22 01:21:05;;;;;;;2.67;1.20;;;19.20;59.80;;;;;;5017904;28;20030;-69
2023/11/22 01:23:32;;;;;;;1.50;1.10;;;19.20;59.80;;;;;;5017777;28;20014;-69
2023/11/22 01:25:59;;;;;;;1.52;0.90;;;19.20;59.90;;;;;;5019006;28;20359;-69
2023/11/22 01:28:26;;;;;;;1.80;1.10;;;19.20;59.80;;;;;;5018401;28;20022;-69
2023/11/22 01:30:54;;;;;;;2.03;1.33;;;19.20;59.80;;;;;;5000084;28;20056;-69
2023/11/22 01:33:20;;;;;;;1.60;1.02;;;19.20;59.80;;;;;;5019554;28;20040;-69
2023/11/22 01:35:46;;;;;;;1.98;1.30;;;19.20;59.80;;;;;;5018840;28;20029;-69
2023/11/22 01:38:11;;;;;;;1.67;1.10;;;19.20;59.80;;;;;;5022232;28;20063;-69
2023/11/22 01:40:44;;;;;;;1.80;1.20;;;19.20;59.80;;;;;;5023013;28;20057;-68
2023/11/22 01:43:15;;;;;;;1.92;1.23;;;19.10;59.70;;;;;;5023880;28;20025;-69
2023/11/22 01:45:40;;;;;;;1.83;1.10;;;19.20;59.80;;;;;;5022734;28;20026;-69
2023/11/22 01:48:06;;;;;;;1.50;1.00;;;19.20;59.70;;;;;;5022200;28;20577;-69
2023/11/22 01:50:33;;;;;;;1.85;1.15;;;19.20;59.80;;;;;;5022326;28;20040;-69
2023/11/22 01:52:59;;;;;;;1.77;1.10;;;19.20;59.70;;;;;;5020681;28;20045;-68
2023/11/22 01:55:25;;;;;;;2.40;0.93;;;19.20;59.70;;;;;;5022172;28;20436;-68
2023/11/22 01:57:51;;;;;;;1.55;1.10;;;19.20;59.70;;;;;;5021905;28;20029;-68
2023/11/22 02:00:19;;;;;;;1.70;1.10;;;19.20;59.70;;;;;;5021020;28;20497;-68
2023/11/22 02:02:45;;;;;;;1.55;1.10;;;19.20;59.70;;;;;;5024674;28;20040;-66
2023/11/22 02:05:11;;;;;;;1.52;1.10;;;19.20;59.70;;;;;;5021912;28;20029;-67
2023/11/22 02:07:37;;;;;;;1.60;1.00;;;19.20;59.70;;;;;;5021106;28;20448;-66
2023/11/22 02:10:07;;;;;;;2.17;1.20;;;19.10;59.60;;;;;;5021923;28;20033;-67
2023/11/22 02:12:33;;;;;;;;;;;19.20;59.70;;;;;;5021698;28;20025;-66
2023/11/22 02:14:59;;;;;;;1.08;0.88;;;19.20;59.60;;;;;;5023510;28;20262;-67
2023/11/22 02:17:25;;;;;;;1.48;1.00;;;19.20;59.60;;;;;;5022579;28;20393;-67
2023/11/22 02:19:50;;;;;;;1.70;1.25;;;19.10;59.60;;;;;;5036533;28;20057;-67
2023/11/22 02:22:16;;;;;;;2.22;1.10;;;19.20;59.60;;;;;;5021717;28;20064;-66
2023/11/22 02:24:42;;;;;;;1.58;1.10;;;19.20;59.60;;;;;;5019015;28;20030;-67
2023/11/22 02:27:07;;;;;;;1.70;1.02;;;19.20;59.60;;;;;;5023278;28;20041;-66
2023/11/22 02:29:33;;;;;;;1.63;1.10;;;19.20;59.60;;;;;;5036201;28;20362;-67
2023/11/22 02:31:58;;;;;;;1.52;0.90;;;19.20;59.60;;;;;;5019975;28;20100;-66
2023/11/22 02:34:25;;;;;;;1.50;1.00;;;19.20;59.60;;;;;;5020703;28;20030;-66
2023/11/22 02:36:50;;;;;;;1.90;1.13;;;19.10;59.50;;;;;;5020983;28;20489;-66
2023/11/22 02:39:16;;;;;;;1.60;1.02;;;19.20;59.60;;;;;;5018933;28;20109;-67
2023/11/22 02:41:42;;;;;;;1.50;1.00;;;19.20;59.50;;;;;;5021509;28;20037;-67
2023/11/22 02:44:08;;;;;;;1.98;1.38;;;19.20;59.50;;;;;;5021306;28;20096;-67
2023/11/22 02:46:33;;;;;;;1.58;1.00;;;19.20;59.50;;;;;;5035234;28;20104;-66
2023/11/22 02:48:59;;;;;;;1.60;0.90;;;19.20;59.50;;;;;;5020623;28;20371;-66
2023/11/22 02:51:25;;;;;;;1.65;1.10;;;19.20;59.50;;;;;;5021767;28;20034;-67
2023/11/22 02:53:51;;;;;;;1.27;1.00;;;19.20;59.50;;;;;;5019079;28;20033;-66
2023/11/22 02:56:17;;;;;;;2.35;0.98;;;19.20;59.50;;;;;;5003354;28;20026;-66
2023/11/22 02:58:43;;;;;;;1.30;1.00;;;19.10;59.40;;;;;;5020406;28;20128;-66
2023/11/22 03:01:08;;;;;;;1.50;0.90;;;19.20;59.50;;;;;;5021519;28;20543;-66
2023/11/22 03:03:34;;;;;;;1.63;1.00;;;19.20;59.50;;;;;;5019612;28;20074;-68
2023/11/22 03:06:01;;;;;;;1.33;1.00;;;19.20;59.50;;;;;;5023132;28;20026;-68
2023/11/22 03:08:27;;;;;;;2.10;1.20;;;19.10;59.40;;;;;;5019464;28;20152;-68
2023/11/22 03:10:53;;;;;;;2.47;1.00;;;19.10;59.40;;;;;;5018885;28;20479;-68
2023/11/22 03:13:18;;;;;;;1.98;1.10;;;19.10;59.40;;;;;;5021629;28;20137;-65
2023/11/22 03:15:44;;;;;;;1.55;1.00;;;19.10;59.40;;;;;;5021427;28;20109;-65
2023/11/22 03:18:11;;;;;;;1.63;1.02;;;19.10;59.40;;;;;;5022645;28;20490;-65
2023/11/22 03:20:37;;;;;;;1.60;1.00;;;19.10;59.40;;;;;;5019953;28;20413;-66
2023/11/22 03:23:04;;;;;;;1.42;1.00;;;19.10;59.40;;;;;;5019425;28;20029;-65
2023/11/22 03:25:30;;;;;;;1.40;1.02;;;19.10;59.40;;;;;;5017585;28;20030;-65
2023/11/22 03:27:56;;;;;;;1.40;0.90;;;19.10;59.40;;;;;;5019677;28;20112;-65
2023/11/22 03:30:22;;;;;;;1.30;1.00;;;19.10;59.40;;;;;;5019176;28;20128;-65
2023/11/22 03:32:49;;;;;;;1.83;1.17;;;19.20;59.90;;;;;;5020969;28;20496;-65
2023/11/22 03:35:16;;;;;;;1.58;1.00;;;19.10;59.40;;;;;;5021564;28;20102;-66
2023/11/22 03:37:42;;;;;;;1.98;1.10;;;19.10;59.40;;;;;;5020017;28;20026;-66
2023/11/22 03:40:09;;;;;;;1.52;1.00;;;19.10;59.40;;;;;;5019695;28;20110;-65
2023/11/22 03:42:36;;;;;;;2.00;1.00;;;19.10;59.30;;;;;;5020423;28;20466;-66
2023/11/22 03:45:03;;;;;;;1.30;1.00;;;19.10;59.30;;;;;;5019960;28;20031;-65
2023/11/22 03:47:28;;;;;;;1.15;0.90;;;19.10;59.30;;;;;;5018188;28;20083;-66
2023/11/22 03:49:54;;;;;;;1.20;0.90;;;19.10;59.30;;;;;;5019714;28;20021;-65
2023/11/22 03:52:20;;;;;;;1.60;1.10;;;19.10;59.30;;;;;;5021630;28;20498;-66
2023/11/22 03:54:45;;;;;;;1.45;1.08;;;19.10;59.40;;;;;;4997770;28;20030;-64
2023/11/22 03:57:11;;;;;;;1.25;0.98;;;19.10;59.30;;;;;;5019652;28;20084;-66
2023/11/22 03:59:36;;;;;;;1.67;1.08;;;19.10;59.30;;;;;;5020113;28;20474;-66
2023/11/22 04:02:02;;;;;;;1.27;0.90;;;19.10;59.30;;;;;;5020668;28;20846;-65
2023/11/22 04:04:28;;;;;;;1.45;1.00;;;19.10;59.40;;;;;;5020207;28;20061;-66
2023/11/22 04:06:54;;;;;;;1.20;0.98;;;19.10;59.40;;;;;;5018685;28;20474;-65
2023/11/22 04:09:20;;;;;;;1.35;1.00;;;19.10;59.40;;;;;;5018198;28;20018;-65
2023/11/22 04:11:49;;;;;;;1.25;0.90;;;19.10;59.30;;;;;;5020617;28;20440;-65
2023/11/22 04:14:15;;;;;;;;;;;19.10;59.30;;;;;;5005163;28;20040;-68
2023/11/22 04:16:40;;;;;;;1.42;0.90;;;19.10;59.30;;;;;;5019449;28;19934;-69
2023/11/22 04:19:06;;;;;;;1.30;0.90;;;19.10;59.30;;;;;;5020184;28;20030;-69
2023/11/22 04:21:32;;;;;;;1.65;1.17;;;19.10;59.40;;;;;;5018287;28;20075;-69
2023/11/22 04:23:57;;;;;;;1.05;0.80;;;19.10;59.40;;;;;;5017097;28;20517;-65
2023/11/22 04:26:24;;;;;;;1.42;0.85;;;19.10;59.40;;;;;;5019687;28;20045;-65
2023/11/22 04:28:50;;;;;;;1.35;0.85;;;19.10;59.40;;;;;;5020485;28;20071;-65
2023/11/22 04:31:15;;;;;;;1.60;1.00;;;19.10;59.40;;;;;;5018218;28;20038;-65
2023/11/22 04:33:41;;;;;;;1.17;0.88;;;19.10;59.40;;;;;;5018239;28;20461;-66
2023/11/22 04:36:07;;;;;;;1.35;0.90;;;19.00;59.40;;;;;;5019467;28;20037;-64
2023/11/22 04:38:34;;;;;;;1.52;1.05;;;19.00;59.40;;;;;;5020321;28;20465;-66
2023/11/22 04:40:59;;;;;;;1.17;0.90;;;19.00;59.40;;;;;;5016199;28;20113;-65
2023/11/22 04:43:25;;;;;;;1.15;0.80;;;19.00;59.40;;;;;;5017274;28;20040;-65
2023/11/22 04:45:51;;;;;;;1.20;0.90;;;19.00;59.40;;;;;;5018108;28;20022;-68
2023/11/22 04:48:17;;;;;;;1.30;0.95;;;19.10;59.50;;;;;;5021521;28;20029;-68
2023/11/22 04:50:42;;;;;;;1.20;0.80;;;19.00;59.50;;;;;;5020781;28;20034;-69
2023/11/22 04:53:10;;;;;;;1.15;0.90;;;19.00;59.50;;;;;;5021189;28;20032;-68
2023/11/22 04:55:35;;;;;;;1.13;0.90;;;19.00;59.50;;;;;;5019623;28;20100;-68
2023/11/22 04:58:01;;;;;;;1.40;0.90;;;19.00;59.50;;;;;;5002833;28;20188;-68
2023/11/22 05:00:27;;;;;;;1.20;0.80;;;19.00;59.50;;;;;;5001331;28;20120;-68
2023/11/22 05:02:54;;;;;;;1.55;1.10;;;19.00;59.50;;;;;;5020181;28;20111;-68
2023/11/22 05:05:20;;;;;;;1.48;1.00;;;19.00;59.50;;;;;;5034159;28;20028;-68
2023/11/22 05:07:45;;;;;;;1.80;0.90;;;19.00;59.50;;;;;;5017753;28;20025;-69
2023/11/22 05:10:11;;;;;;;0.95;0.80;;;19.00;59.50;;;;;;5017222;28;20145;-69
2023/11/22 05:12:37;;;;;;;1.17;0.90;;;19.00;59.50;;;;;;5017074;28;20109;-68
2023/11/22 05:15:03;;;;;;;1.40;1.00;;;19.00;59.50;;;;;;5020273;28;20025;-68
2023/11/22 05:17:29;;;;;;;1.63;1.10;;;19.00;59.50;;;;;;5019959;28;20496;-68
2023/11/22 05:19:55;;;;;;;0.95;0.80;;;19.00;59.50;;;;;;5018103;28;20029;-68
2023/11/22 05:22:20;;;;;;;1.30;0.90;;;19.00;59.50;;;;;;5019444;28;20488;-68
2023/11/22 05:24:46;;;;;;;1.20;0.80;;;19.00;59.50;;;;;;5015020;28;20112;-69
2023/11/22 05:27:12;;;;;;;0.98;0.80;;;19.00;59.50;;;;;;5017131;28;20502;-69
2023/11/22 05:29:38;;;;;;;1.25;0.82;;;19.00;59.50;;;;;;5018067;28;20033;-69
2023/11/22 05:32:04;;;;;;;0.90;0.70;;;19.00;59.50;;;;;;5018373;28;20021;-69
2023/11/22 05:34:30;;;;;;;1.27;0.88;;;19.00;59.50;;;;;;5033130;28;20038;-67
2023/11/22 05:36:55;;;;;;;1.10;0.85;;;19.00;59.50;;;;;;5018550;28;20031;-66
2023/11/22 05:39:24;;;;;;;1.23;0.88;;;19.00;59.50;;;;;;5018717;28;20025;-66
2023/11/22 05:41:50;;;;;;;1.15;0.80;;;19.00;59.50;;;;;;5017916;28;20097;-67
2023/11/22 05:44:16;;;;;;;0.70;0.68;;;19.00;59.50;;;;;;5018834;28;20026;-67
2023/11/22 05:46:42;;;;;;;1.17;0.90;;;19.00;60.00;;;;;;5017165;28;20359;-66
2023/11/22 05:49:07;;;;;;;1.38;0.90;;;19.00;59.50;;;;;;5017928;28;20029;-66
2023/11/22 05:51:37;;;;;;;1.48;0.90;;;19.00;59.50;;;;;;5019043;28;20076;-67
2023/11/22 05:54:03;;;;;;;1.10;0.80;;;19.00;59.50;;;;;;5017470;28;20112;-68
2023/11/22 05:56:28;;;;;;;1.30;0.90;;;19.00;59.50;;;;;;5016429;28;20041;-69
2023/11/22 05:58:54;;;;;;;1.23;0.88;;;19.00;59.50;;;;;;5018579;28;20025;-69
2023/11/22 06:01:20;;;;;;;1.33;0.82;;;19.00;59.50;;;;;;5017305;28;20087;-69
2023/11/22 06:03:45;;;;;;;1.17;0.80;;;19.00;59.50;;;;;;5018854;28;20021;-69
2023/11/22 06:06:13;;;;;;;1.15;0.90;;;19.00;59.50;;;;;;5018282;28;20026;-69
2023/11/22 06:08:39;;;;;;;1.60;0.93;;;19.00;59.50;;;;;;5017977;28;20072;-69
2023/11/22 06:11:04;;;;;;;1.23;0.85;;;18.90;59.50;;;;;;5015375;28;20442;-69
2023/11/22 06:13:30;;;;;;;1.17;0.73;;;19.00;59.50;;;;;;5018483;28;20041;-69
2023/11/22 06:15:56;;;;;;;1.65;1.05;;;19.00;59.50;;;;;;5018002;28;20092;-68
2023/11/22 06:18:21;;;;;;;1.42;0.90;;;19.00;59.50;;;;;;5017926;28;20038;-69
2023/11/22 06:20:48;;;;;;;1.20;0.82;;;19.00;59.50;;;;;;5019092;28;20037;-69
2023/11/22 06:23:13;;;;;;;1.00;0.73;;;19.00;59.50;;;;;;5020158;28;20524;-69
2023/11/22 06:25:43;;;;;;;0.93;0.75;;;19.00;59.50;;;;;;5020126;28;20164;-69
2023/11/22 06:28:08;;;;;;;1.00;0.80;;;19.00;59.50;;;;;;5022250;28;20113;-69
2023/11/22 06:30:34;;;;;;;1.27;0.90;;;19.00;59.50;;;;;;5021236;28;20155;-69
2023/11/22 06:33:01;;;;;;;1.15;0.90;;;19.00;59.50;;;;;;5022739;28;20442;-69
2023/11/22 06:35:27;;;;;;;1.05;0.80;;;18.90;59.40;;;;;;5002673;28;20052;-67
2023/11/22 06:37:53;;;;;;;1.40;0.90;;;18.90;59.40;;;;;;5019787;28;20675;-66
2023/11/22 06:40:20;;;;;;;0.82;0.80;;;19.00;59.50;;;;;;5019713;28;20037;-66
2023/11/22 06:42:46;;;;;;;1.00;0.70;;;19.00;59.50;;;;;;5021450;28;20032;-66
2023/11/22 06:45:14;;;;;;;1.27;0.90;;;19.00;59.50;;;;;;5020247;28;20389;-69
2023/11/22 06:47:40;;;;;;;1.37;0.80;;;18.90;59.40;;;;;;5021999;28;20022;-69
2023/11/22 06:50:09;;;;;;;0.80;0.70;;;19.00;59.50;;;;;;5020896;28;20330;-69
2023/11/22 06:52:41;;;;;;;0.80;0.70;;;19.00;59.50;;;;;;5004681;28;20488;-69
2023/11/22 06:55:08;;;;;;;1.20;0.80;;;18.90;59.40;;;;;;5020527;28;20029;-68
2023/11/22 06:57:35;;;;;;;0.93;0.77;;;18.90;59.40;;;;;;5022756;28;20021;-69
2023/11/22 07:00:05;;;;;;;1.00;0.80;;;18.90;59.40;;;;;;5036673;28;20026;-69
2023/11/22 07:02:35;;;;;;;0.95;0.80;;;18.90;59.90;;;;;;5021003;28;20087;-69
2023/11/22 07:05:00;;;;;;;1.00;0.80;;;19.00;59.50;;;;;;5020741;28;20116;-66
2023/11/22 07:07:26;;;;;;;1.15;0.88;;;19.00;59.50;;;;;;5021008;28;20447;-66
2023/11/22 07:09:52;;;;;;;0.90;0.80;;;19.00;59.50;;;;;;5020528;28;20030;-66
2023/11/22 07:12:19;;;;;;;1.20;0.80;;;19.00;59.50;;;;;;5017424;28;20044;-66
2023/11/22 07:14:49;;;;;;;1.00;0.80;;;19.00;59.50;;;;;;5021252;28;20029;-67
2023/11/22 07:17:17;;;;;;;0.93;0.80;;;19.00;59.50;;;;;;5035265;28;20031;-67
2023/11/22 07:19:46;;;;;;;1.20;0.90;;;19.00;59.50;;;;;;5021323;28;20079;-66
2023/11/22 07:22:15;;;;;;;1.00;0.75;;;18.90;59.40;;;;;;5020044;28;20180;-67
2023/11/22 07:24:50;;;;;;;0.88;0.70;;;18.90;59.40;;;;;;5020022;28;20033;-66
2023/11/22 07:27:17;;;;;;;1.10;0.90;;;18.90;59.40;;;;;;5019748;28;20033;-67
2023/11/22 07:29:44;;;;;;;1.15;0.85;;;18.90;59.40;;;;;;5020249;28;20480;-67
2023/11/22 07:32:10;;;;;;;1.40;0.90;;;19.00;59.40;;;;;;5020250;28;20029;-67
2023/11/22 07:34:36;;;;;;;0.70;0.70;;;18.90;59.40;;;;;;5018381;28;20032;-66
2023/11/22 07:37:02;;;;;;;0.77;0.70;;;18.90;59.40;;;;;;5019875;28;20042;-66
2023/11/22 07:39:28;;;;;;;0.80;0.70;;;18.90;59.40;;;;;;5020257;28;20568;-66
2023/11/22 07:41:55;;;;;;;0.88;0.60;;;18.90;59.40;;;;;;5017597;28;20037;-66
2023/11/22 07:44:21;;;;;;;0.77;0.70;;;18.90;59.40;;;;;;5020419;28;20022;-66
2023/11/22 07:46:47;;;;;;;0.95;0.77;;;18.90;59.40;;;;;;5019231;28;20088;-68
2023/11/22 07:49:13;;;;;;;0.98;0.80;;;18.90;59.40;;;;;;5005497;28;20029;-68
2023/11/22 07:51:40;;;;;;;0.70;0.70;;;18.90;59.40;;;;;;5015473;28;20362;-68
2023/11/22 07:54:07;;;;;;;1.00;0.80;;;18.90;59.40;;;;;;5019310;28;20033;-68
2023/11/22 07:56:32;;;;;;;0.70;0.70;;;18.90;59.30;;;;;;5014732;28;20034;-69
2023/11/22 07:58:58;;;;;;;1.20;0.90;;;18.90;59.40;;;;;;5018840;28;20029;-68
2023/11/22 08:01:25;;;;;;;0.85;0.70;;;18.90;59.40;;;;;;5020936;28;20030;-69
2023/11/22 08:03:55;;;;;;;1.33;0.93;;;18.90;59.40;;;;;;5020776;28;20021;-68
2023/11/22 08:06:21;;;;;;;1.08;0.80;;;18.90;59.40;;;;;;5020623;28;20075;-68
2023/11/22 08:08:47;;;;;;;1.05;0.77;;;18.90;59.30;;;;;;5020507;28;20421;-68
2023/11/22 08:11:15;;;;;;;0.77;0.63;;;18.90;59.30;;;;;;5017467;28;20025;-68
2023/11/22 08:13:44;;;;;;;1.25;0.82;;;18.90;59.30;;;;;;5019696;28;20541;-68
2023/11/22 08:16:13;;;;;;;1.13;0.80;;;18.90;59.30;;;;;;5034940;28;20032;-69
2023/11/22 08:18:39;;;;;;;1.20;0.70;;;18.90;59.40;;;;;;5018562;28;20334;-69
2023/11/22 08:21:04;;;;;;;0.85;0.80;;;18.90;59.30;;;;;;5019273;28;20075;-69
2023/11/22 08:23:31;;;;;;;0.80;0.70;;;18.90;59.30;;;;;;5002754;28;20072;-69
2023/11/22 08:26:01;;;;;;;0.70;0.70;;;18.90;59.30;;;;;;5032111;28;20029;-69
2023/11/22 08:28:27;;;;;;;0.85;0.75;;;18.90;59.30;;;;;;5020278;28;20018;-69
2023/11/22 08:30:53;;;;;;;0.70;0.70;;;18.90;59.30;;;;;;5019995;28;20049;-69
2023/11/22 08:33:18;;;;;;;1.10;0.85;;;18.90;59.30;;;;;;5018061;28;20076;-68
2023/11/22 08:35:50;;;;;;;0.82;0.70;;;18.90;59.30;;;;;;5020477;28;20072;-69
2023/11/22 08:38:16;;;;;;;1.33;0.85;;;18.90;59.30;;;;;;5020109;28;20018;-69
2023/11/22 08:40:42;;;;;;;1.38;0.90;;;18.90;59.30;;;;;;5016711;28;20052;-69
2023/11/22 08:43:08;;;;;;;1.10;0.80;;;18.90;59.30;;;;;;5019384;28;20441;-69
2023/11/22 08:45:34;;;;;;;1.17;0.70;;;18.90;59.30;;;;;;5019164;28;20029;-69
2023/11/22 08:48:00;;;;;;;0.70;0.60;;;18.90;59.30;;;;;;5019009;28;20033;-69
2023/11/22 08:50:26;;;;;;;0.68;0.68;;;18.90;59.30;;;;;;5019428;28;20466;-69
2023/11/22 08:52:52;;;;;;;1.02;0.80;;;18.90;59.30;;;;;;5019693;28;20033;-69
2023/11/22 08:55:21;;;;;;;1.10;0.80;;;18.90;59.30;;;;;;5019657;28;20018;-66
2023/11/22 08:57:48;;;;;;;1.00;0.70;;;18.90;59.30;;;;;;5018366;28;20133;-67
2023/11/22 09:00:14;;;;;;;1.17;0.80;;;18.90;59.30;;;;;;5018679;28;20485;-66
2023/11/22 09:02:40;;;;;;;1.05;0.75;;;18.90;59.30;;;;;;5018564;28;20029;-67
2023/11/22 09:05:12;;;;;;;1.13;0.80;;;18.90;59.30;;;;;;5019624;28;20026;-68
2023/11/22 09:07:38;;;;;;;1.17;0.70;;;18.90;59.30;;;;;;5020900;28;20122;-68
2023/11/22 09:10:11;;;;;;;0.95;0.70;;;18.90;59.30;;;;;;5017769;28;20028;-68
2023/11/22 09:12:40;;;;;;;1.13;0.77;;;18.90;59.30;;;;;;5017823;28;20114;-68
2023/11/22 09:15:11;;;;;;;1.35;0.80;;;18.90;59.30;;;;;;5016619;28;20490;-68
2023/11/22 09:17:44;;;;;;;1.00;0.80;;;18.90;59.30;;;;;;5018176;28;20126;-69
2023/11/22 09:20:13;;;;;;;1.08;0.75;;;18.90;59.20;;;;;;5017638;28;20463;-69
2023/11/22 09:22:49;;;;;;;1.20;0.80;;;18.90;59.20;;;;;;5019326;28;20021;-69
2023/11/22 09:25:16;;;;;;;0.77;0.60;;;18.90;59.20;;;;;;5018824;28;20436;-66
2023/11/22 09:27:46;;;;;;;0.80;0.70;;;18.90;59.20;;;;;;5015023;28;20024;-66
2023/11/22 09:30:17;;;;;;;0.95;0.70;;;18.90;59.30;;;;;;5019699;28;20156;-66
2023/11/22 09:32:47;;;;;;;1.00;0.70;;;18.90;59.20;;;;;;5017895;28;20094;-67
2023/11/22 09:35:15;;;;;;;1.40;0.80;;;18.90;59.20;;;;;;5019354;28;20038;-66
2023/11/22 09:37:44;;;;;;;1.17;0.80;;;18.90;59.20;;;;;;5018127;28;20030;-66
2023/11/22 09:40:12;;;;;;;0.90;0.77;;;18.90;59.20;;;;;;5019331;28;20462;-67
2023/11/22 09:42:37;;;;;;;0.80;0.60;;;18.90;59.20;;;;;;5016254;28;20454;-66
2023/11/22 09:45:03;;;;;;;0.80;0.70;;;18.90;59.20;;;;;;5016942;28;20030;-67
2023/11/22 09:47:34;;;;;;;1.40;0.80;;;18.90;59.20;;;;;;5018302;28;20505;-67
2023/11/22 09:50:05;;;;;;;1.13;0.82;;;18.90;59.20;;;;;;5018233;28;20494;-66
2023/11/22 09:52:35;;;;;;;1.10;0.80;;;18.90;59.20;;;;;;5018571;28;20496;-66
2023/11/22 09:55:03;;;;;;;0.90;0.73;;;18.90;59.20;;;;;;5019187;28;20034;-67
2023/11/22 09:57:30;;;;;;;1.15;0.80;;;18.90;59.20;;;;;;5017950;28;20530;-66
2023/11/22 09:59:57;;;;;;;1.20;0.77;;;18.90;59.20;;;;;;5021286;28;20541;-66
2023/11/22 10:02:26;;;;;;;1.00;0.70;;;18.80;59.20;;;;;;5019464;28;20474;-66
2023/11/22 10:04:53;;;;;;;0.93;0.77;;;18.90;59.20;;;;;;5022746;28;20076;-66
2023/11/22 10:07:19;;;;;;;1.73;0.88;;;18.80;59.10;;;;;;5023519;28;20934;-66
2023/11/22 10:09:44;;;;;;;1.13;0.70;;;18.90;59.20;;;;;;5021691;28;20034;-65
2023/11/22 10:12:12;;;;;;;1.40;0.80;;;18.90;59.20;;;;;;5021446;28;20037;-65
2023/11/22 10:14:38;;;;;;;0.60;0.57;;;18.90;59.20;;;;;;5021127;28;20489;-66
2023/11/22 10:17:05;;;;;;;1.05;0.80;;;18.90;59.20;;;;;;5020017;28;20057;-66
2023/11/22 10:19:31;;;;;;;1.02;0.70;;;18.90;59.20;;;;;;5021984;28;20397;-66
2023/11/22 10:22:07;;;;;;;1.00;0.70;;;18.90;59.20;;;;;;5023219;28;20068;-65
2023/11/22 10:24:33;;;;;;;1.15;0.70;;;18.90;59.20;;;;;;5020562;28;20042;-65
2023/11/22 10:27:00;;;;;;;0.75;0.65;;;18.80;59.10;;;;;;5019981;28;20022;-65
2023/11/22 10:29:26;;;;;;;1.55;0.80;;;18.90;59.20;;;;;;5003862;28;20453;-65
2023/11/22 10:31:52;;;;;;;0.90;0.80;;;18.90;59.10;;;;;;5021419;28;20025;-66
2023/11/22 10:34:23;;;;;;;0.90;0.70;;;18.90;59.10;;;;;;5022482;28;20107;-65
2023/11/22 10:36:53;;;;;;;1.38;0.85;;;18.80;59.10;;;;;;5019480;28;20050;-69
2023/11/22 10:39:23;;;;;;;0.95;0.80;;;18.80;59.10;;;;;;5021613;28;20025;-69
2023/11/22 10:41:51;;;;;;;0.73;0.68;;;18.90;59.10;;;;;;5020230;28;20030;-69
2023/11/22 10:44:20;;;;;;;0.95;0.70;;;18.80;59.10;;;;;;5021689;28;20026;-69
2023/11/22 10:46:46;;;;;;;;;;;18.80;59.10;;;;;;5020886;28;20427;-69
2023/11/22 10:49:12;;;;;;;0.90;0.80;;;18.80;59.10;;;;;;5020542;28;19948;-69
2023/11/22 10:51:41;;;;;;;0.85;0.63;;;18.80;59.10;;;;;;5019050;28;20064;-69
2023/11/22 10:54:07;;;;;;;0.77;0.60;;;18.80;59.10;;;;;;5021912;28;20338;-69
2023/11/22 10:56:43;;;;;;;0.95;0.70;;;18.80;59.10;;;;;;5019618;28;20447;-69
2023/11/22 10:59:13;;;;;;;1.13;0.80;;;18.80;59.10;;;;;;5018672;28;20029;-69
2023/11/22 11:01:45;;;;;;;1.00;0.90;;;18.80;59.10;;;;;;5020604;28;20037;-69
2023/11/22 11:04:21;;;;;;;1.20;0.80;;;18.80;59.10;;;;;;5019566;28;20029;-69
2023/11/22 11:06:53;;;;;;;1.10;0.70;;;18.80;59.10;;;;;;5021698;28;20076;-68
2023/11/22 11:09:21;;;;;;;0.82;0.60;;;18.80;59.10;;;;;;5020644;28;20078;-69
2023/11/22 11:11:47;;;;;;;1.35;0.95;;;18.80;59.10;;;;;;5020482;28;20025;-69
2023/11/22 11:14:15;;;;;;;1.20;0.70;;;18.80;59.10;;;;;;5018613;28;20394;-69
2023/11/22 11:16:46;;;;;;;0.95;0.70;;;18.80;59.10;;;;;;5023071;28;20426;-68
2023/11/22 11:19:14;;;;;;;0.90;0.80;;;18.80;59.10;;;;;;5019699;28;20021;-68
2023/11/22 11:21:40;;;;;;;1.67;0.85;;;18.80;59.10;;;;;;5020973;28;20033;-68
2023/11/22 11:24:06;;;;;;;1.42;0.98;;;18.80;59.10;;;;;;5023005;28;20029;-68
2023/11/22 11:26:34;;;;;;;1.10;0.73;;;18.80;59.10;;;;;;5020714;28;20095;-69
2023/11/22 11:29:00;;;;;;;1.08;0.70;;;18.80;59.00;;;;;;5020042;28;20068;-69
2023/11/22 11:31:31;;;;;;;1.10;0.70;;;18.80;59.10;;;;;;5020614;28;20029;-69
2023/11/22 11:33:57;;;;;;;0.80;0.60;;;18.80;59.00;;;;;;5020363;28;20025;-69
2023/11/22 11:36:25;;;;;;;0.98;0.73;;;18.80;59.00;;;;;;5019708;28;20026;-69
2023/11/22 11:38:55;;;;;;;1.27;0.80;;;18.80;59.00;;;;;;5020475;28;20025;-69
2023/11/22 11:41:33;;;;;;;1.02;0.70;;;18.80;59.00;;;;;;5020496;28;20022;-69
2023/11/22 11:44:02;;;;;;;0.70;0.70;;;18.80;59.00;;;;;;5017742;28;20026;-69
2023/11/22 11:46:29;;;;;;;1.02;0.70;;;18.80;59.00;;;;;;5018237;28;20028;-69
2023/11/22 11:48:56;;;;;;;1.10;0.70;;;18.80;59.00;;;;;;5019512;28;20040;-69
2023/11/22 11:51:24;;;;;;;0.70;0.70;;;18.80;59.00;;;;;;5019786;28;20076;-69
2023/11/22 11:53:50;;;;;;;0.90;0.80;;;18.80;59.00;;;;;;5020532;28;20131;-69
2023/11/22 11:56:17;;;;;;;1.05;0.80;;;18.80;59.00;;;;;;5019533;28;20485;-69
2023/11/22 11:58:47;;;;;;;1.20;0.80;;;18.80;59.00;;;;;;5017493;28;20391;-69
2023/11/22 12:01:13;;;;;;;1.05;0.70;;;18.80;59.00;;;;;;5017820;28;20091;-69
2023/11/22 12:03:39;;;;;;;1.58;0.80;;;18.80;58.90;;;;;;5018570;28;20018;-69
2023/11/22 12:06:06;;;;;;;0.80;0.70;;;18.80;58.90;;;;;;5021426;28;20021;-70
2023/11/22 12:08:36;;;;;;;1.15;0.70;;;18.80;58.90;;;;;;5020823;28;20495;-70
2023/11/22 12:11:03;;;;;;;0.77;0.70;;;18.80;59.00;;;;;;5019349;28;20030;-69
2023/11/22 12:13:30;;;;;;;1.00;0.77;;;18.80;59.00;;;;;;5017879;28;20025;-69
2023/11/22 12:15:55;;;;;;;1.30;0.82;;;18.80;58.90;;;;;;5018501;28;20037;-70
2023/11/22 12:18:22;;;;;;;0.95;0.80;;;18.80;58.90;;;;;;5019792;28;20151;-69
2023/11/22 12:20:59;;;;;;;1.02;0.80;;;18.80;58.90;;;;;;5033831;28;20030;-70
2023/11/22 12:23:27;;;;;;;0.93;0.80;;;18.80;58.90;;;;;;5021523;28;20323;-70
2023/11/22 12:25:56;;;;;;;0.93;0.70;;;18.80;58.90;;;;;;4992425;28;20033;-70
2023/11/22 12:28:24;;;;;;;1.00;0.70;;;18.80;58.90;;;;;;5018674;28;20473;-70
2023/11/22 12:30:50;;;;;;;0.88;0.63;;;18.80;59.00;;;;;;5019318;28;20017;-69
2023/11/22 12:33:18;;;;;;;0.90;0.70;;;18.80;58.90;;;;;;5019518;28;20029;-69
2023/11/22 12:35:46;;;;;;;1.17;0.80;;;18.80;58.90;;;;;;5019078;28;20030;-69
2023/11/22 12:38:12;;;;;;;1.08;0.70;;;18.80;58.90;;;;;;5020657;28;20033;-69
2023/11/22 12:40:45;;;;;;;0.80;0.70;;;18.80;58.90;;;;;;5020088;28;20060;-69
2023/11/22 12:43:13;;;;;;;0.90;0.70;;;18.80;58.90;;;;;;5018469;28;20017;-69
2023/11/22 12:45:40;;;;;;;0.85;0.70;;;18.80;58.90;;;;;;5019433;28;20018;-69